sensor_id;sensor_type;location;lat;lon;timestamp;P1;durP1;ratioP1;P2;durP2;ratioP2
72358;SDS011;60317;48.880;-0.862;2023-05-27T00:00:43;10.60;;;3.72;;
72358;SDS011;60317;48.880;-0.862;2023-05-27T00:03:10;14.30;;;3.63;;
72358;SDS011;60317;48.880;-0.862;2023-05-27T00:05:36;9.50;;;3.75;;
72358;SDS011;60317;48.880;-0.862;2023-05-27T00:08:03;15.95;;;3.83;;
72358;SDS011;60317;48.880;-0.862;2023-05-27T00:10:30;12.55;;;3.63;;
72358;SDS011;60317;48.880;-0.862;2023-05-27T00:12:57;19.15;;;4.28;;
72358;SDS011;60317;48.880;-0.862;2023-05-27T00:15:23;10.73;;;3.33;;
72358;SDS011;60317;48.880;-0.862;2023-05-27T00:17:51;9.18;;;3.28;;
72358;SDS011;60317;48.880;-0.862;2023-05-27T00:20:18;12.38;;;3.28;;
72358;SDS011;60317;48.880;-0.862;2023-05-27T00:22:45;11.30;;;3.67;;
72358;SDS011;60317;48.880;-0.862;2023-05-27T00:25:11;10.98;;;3.53;;
72358;SDS011;60317;48.880;-0.862;2023-05-27T00:27:38;11.00;;;3.58;;
72358;SDS011;60317;48.880;-0.862;2023-05-27T00:30:05;9.05;;;3.38;;
72358;SDS011;60317;48.880;-0.862;2023-05-27T00:32:32;9.25;;;3.50;;
72358;SDS011;60317;48.880;-0.862;2023-05-27T00:35:00;10.73;;;3.70;;
72358;SDS011;60317;48.880;-0.862;2023-05-27T00:37:27;12.55;;;3.80;;
72358;SDS011;60317;48.880;-0.862;2023-05-27T00:39:53;9.10;;;3.50;;
72358;SDS011;60317;48.880;-0.862;2023-05-27T00:42:20;10.45;;;3.83;;
72358;SDS011;60317;48.880;-0.862;2023-05-27T00:44:46;14.23;;;4.07;;
72358;SDS011;60317;48.880;-0.862;2023-05-27T00:47:13;9.77;;;3.10;;
72358;SDS011;60317;48.880;-0.862;2023-05-27T00:49:41;11.02;;;3.42;;
72358;SDS011;60317;48.880;-0.862;2023-05-27T00:52:09;10.75;;;3.30;;
72358;SDS011;60317;48.880;-0.862;2023-05-27T00:54:36;8.75;;;3.10;;
72358;SDS011;60317;48.880;-0.862;2023-05-27T00:57:03;10.77;;;3.60;;
72358;SDS011;60317;48.880;-0.862;2023-05-27T00:59:30;11.02;;;3.42;;
72358;SDS011;60317;48.880;-0.862;2023-05-27T01:01:57;15.20;;;3.70;;
72358;SDS011;60317;48.880;-0.862;2023-05-27T01:04:24;11.15;;;3.00;;
72358;SDS011;60317;48.880;-0.862;2023-05-27T01:06:53;6.88;;;3.00;;
72358;SDS011;60317;48.880;-0.862;2023-05-27T01:09:28;10.63;;;3.35;;
72358;SDS011;60317;48.880;-0.862;2023-05-27T01:12:03;8.27;;;2.95;;
72358;SDS011;60317;48.880;-0.862;2023-05-27T01:14:34;8.52;;;3.17;;
72358;SDS011;60317;48.880;-0.862;2023-05-27T01:17:05;13.35;;;3.80;;
72358;SDS011;60317;48.880;-0.862;2023-05-27T01:19:33;10.68;;;3.65;;
72358;SDS011;60317;48.880;-0.862;2023-05-27T01:22:01;6.93;;;3.00;;
72358;SDS011;60317;48.880;-0.862;2023-05-27T01:24:29;12.57;;;3.80;;
72358;SDS011;60317;48.880;-0.862;2023-05-27T01:26:57;9.25;;;3.25;;
72358;SDS011;60317;48.880;-0.862;2023-05-27T01:29:23;7.22;;;2.53;;
72358;SDS011;60317;48.880;-0.862;2023-05-27T01:31:51;8.00;;;2.75;;
72358;SDS011;60317;48.880;-0.862;2023-05-27T01:34:24;7.35;;;2.75;;
72358;SDS011;60317;48.880;-0.862;2023-05-27T01:36:55;9.30;;;2.92;;
72358;SDS011;60317;48.880;-0.862;2023-05-27T01:39:25;8.40;;;3.03;;
72358;SDS011;60317;48.880;-0.862;2023-05-27T01:41:54;9.57;;;3.20;;
72358;SDS011;60317;48.880;-0.862;2023-05-27T01:44:21;7.65;;;3.10;;
72358;SDS011;60317;48.880;-0.862;2023-05-27T01:46:48;9.82;;;3.30;;
72358;SDS011;60317;48.880;-0.862;2023-05-27T01:49:14;6.93;;;2.80;;
72358;SDS011;60317;48.880;-0.862;2023-05-27T01:51:41;6.47;;;2.85;;
72358;SDS011;60317;48.880;-0.862;2023-05-27T01:54:07;10.27;;;3.58;;
72358;SDS011;60317;48.880;-0.862;2023-05-27T01:56:34;8.57;;;2.90;;
72358;SDS011;60317;48.880;-0.862;2023-05-27T01:59:02;10.30;;;3.88;;
72358;SDS011;60317;48.880;-0.862;2023-05-27T02:01:28;8.63;;;3.20;;
72358;SDS011;60317;48.880;-0.862;2023-05-27T02:03:55;10.82;;;3.15;;
72358;SDS011;60317;48.880;-0.862;2023-05-27T02:06:22;8.40;;;2.67;;
72358;SDS011;60317;48.880;-0.862;2023-05-27T02:08:48;9.60;;;3.22;;
72358;SDS011;60317;48.880;-0.862;2023-05-27T02:11:15;9.48;;;3.13;;
72358;SDS011;60317;48.880;-0.862;2023-05-27T02:13:41;8.88;;;3.35;;
72358;SDS011;60317;48.880;-0.862;2023-05-27T02:16:09;10.20;;;3.20;;
72358;SDS011;60317;48.880;-0.862;2023-05-27T02:18:35;9.40;;;3.00;;
72358;SDS011;60317;48.880;-0.862;2023-05-27T02:21:02;9.82;;;3.42;;
72358;SDS011;60317;48.880;-0.862;2023-05-27T02:23:29;7.30;;;2.80;;
72358;SDS011;60317;48.880;-0.862;2023-05-27T02:25:55;7.63;;;2.50;;
72358;SDS011;60317;48.880;-0.862;2023-05-27T02:28:21;9.80;;;3.70;;
72358;SDS011;60317;48.880;-0.862;2023-05-27T02:30:48;8.73;;;3.17;;
72358;SDS011;60317;48.880;-0.862;2023-05-27T02:33:17;7.05;;;2.80;;
72358;SDS011;60317;48.880;-0.862;2023-05-27T02:35:44;8.30;;;3.22;;
72358;SDS011;60317;48.880;-0.862;2023-05-27T02:38:10;9.13;;;3.10;;
72358;SDS011;60317;48.880;-0.862;2023-05-27T02:40:37;9.57;;;3.30;;
72358;SDS011;60317;48.880;-0.862;2023-05-27T02:43:04;10.32;;;3.38;;
72358;SDS011;60317;48.880;-0.862;2023-05-27T02:45:30;7.55;;;3.00;;
72358;SDS011;60317;48.880;-0.862;2023-05-27T02:47:57;10.00;;;3.55;;
72358;SDS011;60317;48.880;-0.862;2023-05-27T02:50:25;11.50;;;3.03;;
72358;SDS011;60317;48.880;-0.862;2023-05-27T02:52:51;8.02;;;3.08;;
72358;SDS011;60317;48.880;-0.862;2023-05-27T02:55:18;8.15;;;3.22;;
72358;SDS011;60317;48.880;-0.862;2023-05-27T02:57:44;9.68;;;3.08;;
72358;SDS011;60317;48.880;-0.862;2023-05-27T03:00:11;8.57;;;3.03;;
72358;SDS011;60317;48.880;-0.862;2023-05-27T03:02:39;9.80;;;3.15;;
72358;SDS011;60317;48.880;-0.862;2023-05-27T03:05:06;9.15;;;3.00;;
72358;SDS011;60317;48.880;-0.862;2023-05-27T03:07:34;8.93;;;2.70;;
72358;SDS011;60317;48.880;-0.862;2023-05-27T03:10:00;10.77;;;3.08;;
72358;SDS011;60317;48.880;-0.862;2023-05-27T03:12:27;10.15;;;3.63;;
72358;SDS011;60317;48.880;-0.862;2023-05-27T03:14:53;8.90;;;2.78;;
72358;SDS011;60317;48.880;-0.862;2023-05-27T03:17:20;10.20;;;3.33;;
72358;SDS011;60317;48.880;-0.862;2023-05-27T03:19:46;8.13;;;3.35;;
72358;SDS011;60317;48.880;-0.862;2023-05-27T03:22:13;7.57;;;3.25;;
72358;SDS011;60317;48.880;-0.862;2023-05-27T03:24:41;8.68;;;2.95;;
72358;SDS011;60317;48.880;-0.862;2023-05-27T03:27:07;5.72;;;2.60;;
72358;SDS011;60317;48.880;-0.862;2023-05-27T03:29:34;9.70;;;3.28;;
72358;SDS011;60317;48.880;-0.862;2023-05-27T03:32:00;9.63;;;3.15;;
72358;SDS011;60317;48.880;-0.862;2023-05-27T03:34:27;8.68;;;2.97;;
72358;SDS011;60317;48.880;-0.862;2023-05-27T03:36:54;7.32;;;2.90;;
72358;SDS011;60317;48.880;-0.862;2023-05-27T03:39:20;8.63;;;3.13;;
72358;SDS011;60317;48.880;-0.862;2023-05-27T03:41:48;8.93;;;2.83;;
72358;SDS011;60317;48.880;-0.862;2023-05-27T03:44:14;7.65;;;2.97;;
72358;SDS011;60317;48.880;-0.862;2023-05-27T03:46:41;5.55;;;2.63;;
72358;SDS011;60317;48.880;-0.862;2023-05-27T03:49:07;6.68;;;2.65;;
72358;SDS011;60317;48.880;-0.862;2023-05-27T03:51:34;8.85;;;3.05;;
72358;SDS011;60317;48.880;-0.862;2023-05-27T03:54:00;7.57;;;2.83;;
72358;SDS011;60317;48.880;-0.862;2023-05-27T03:56:27;7.45;;;2.72;;
72358;SDS011;60317;48.880;-0.862;2023-05-27T03:58:55;9.15;;;2.90;;
72358;SDS011;60317;48.880;-0.862;2023-05-27T04:01:21;6.63;;;2.60;;
72358;SDS011;60317;48.880;-0.862;2023-05-27T04:03:48;5.82;;;2.28;;
72358;SDS011;60317;48.880;-0.862;2023-05-27T04:06:14;7.13;;;2.38;;
72358;SDS011;60317;48.880;-0.862;2023-05-27T04:08:41;7.25;;;2.97;;
72358;SDS011;60317;48.880;-0.862;2023-05-27T04:11:09;5.43;;;2.42;;
72358;SDS011;60317;48.880;-0.862;2023-05-27T04:13:36;7.18;;;2.80;;
72358;SDS011;60317;48.880;-0.862;2023-05-27T04:16:04;9.38;;;2.72;;
72358;SDS011;60317;48.880;-0.862;2023-05-27T04:18:31;6.63;;;2.40;;
72358;SDS011;60317;48.880;-0.862;2023-05-27T04:20:57;6.72;;;2.83;;
72358;SDS011;60317;48.880;-0.862;2023-05-27T04:23:24;7.63;;;3.08;;
72358;SDS011;60317;48.880;-0.862;2023-05-27T04:25:51;5.57;;;2.35;;
72358;SDS011;60317;48.880;-0.862;2023-05-27T04:28:17;6.78;;;2.85;;
72358;SDS011;60317;48.880;-0.862;2023-05-27T04:30:44;7.57;;;2.25;;
72358;SDS011;60317;48.880;-0.862;2023-05-27T04:33:12;6.43;;;2.47;;
72358;SDS011;60317;48.880;-0.862;2023-05-27T04:35:40;6.38;;;2.50;;
72358;SDS011;60317;48.880;-0.862;2023-05-27T04:38:07;8.82;;;2.75;;
72358;SDS011;60317;48.880;-0.862;2023-05-27T04:40:33;6.82;;;2.33;;
72358;SDS011;60317;48.880;-0.862;2023-05-27T04:43:00;6.82;;;2.90;;
72358;SDS011;60317;48.880;-0.862;2023-05-27T04:45:26;7.07;;;2.42;;
72358;SDS011;60317;48.880;-0.862;2023-05-27T04:47:53;6.15;;;2.50;;
72358;SDS011;60317;48.880;-0.862;2023-05-27T04:50:21;5.60;;;2.30;;
72358;SDS011;60317;48.880;-0.862;2023-05-27T04:52:47;6.82;;;2.47;;
72358;SDS011;60317;48.880;-0.862;2023-05-27T04:55:13;5.82;;;2.20;;
72358;SDS011;60317;48.880;-0.862;2023-05-27T04:57:40;7.00;;;2.40;;
72358;SDS011;60317;48.880;-0.862;2023-05-27T05:00:07;5.55;;;2.33;;
72358;SDS011;60317;48.880;-0.862;2023-05-27T05:02:34;5.22;;;2.20;;
72358;SDS011;60317;48.880;-0.862;2023-05-27T05:05:01;4.47;;;1.90;;
72358;SDS011;60317;48.880;-0.862;2023-05-27T05:07:29;5.95;;;2.05;;
72358;SDS011;60317;48.880;-0.862;2023-05-27T05:09:56;4.75;;;2.15;;
72358;SDS011;60317;48.880;-0.862;2023-05-27T05:12:23;4.50;;;2.00;;
72358;SDS011;60317;48.880;-0.862;2023-05-27T05:14:50;5.32;;;2.10;;
72358;SDS011;60317;48.880;-0.862;2023-05-27T05:17:16;7.35;;;2.05;;
72358;SDS011;60317;48.880;-0.862;2023-05-27T05:19:43;4.47;;;2.15;;
72358;SDS011;60317;48.880;-0.862;2023-05-27T05:22:10;4.18;;;2.03;;
72358;SDS011;60317;48.880;-0.862;2023-05-27T05:24:38;4.55;;;1.65;;
72358;SDS011;60317;48.880;-0.862;2023-05-27T05:27:05;4.57;;;1.70;;
72358;SDS011;60317;48.880;-0.862;2023-05-27T05:29:31;3.88;;;2.10;;
72358;SDS011;60317;48.880;-0.862;2023-05-27T05:31:58;4.43;;;2.08;;
72358;SDS011;60317;48.880;-0.862;2023-05-27T05:34:24;4.78;;;1.80;;
72358;SDS011;60317;48.880;-0.862;2023-05-27T05:36:51;5.35;;;1.88;;
72358;SDS011;60317;48.880;-0.862;2023-05-27T05:39:17;5.68;;;1.95;;
72358;SDS011;60317;48.880;-0.862;2023-05-27T05:41:45;3.28;;;1.65;;
72358;SDS011;60317;48.880;-0.862;2023-05-27T05:44:14;5.13;;;1.90;;
72358;SDS011;60317;48.880;-0.862;2023-05-27T05:46:41;4.65;;;1.88;;
72358;SDS011;60317;48.880;-0.862;2023-05-27T05:49:08;5.70;;;2.17;;
72358;SDS011;60317;48.880;-0.862;2023-05-27T05:51:35;5.15;;;1.92;;
72358;SDS011;60317;48.880;-0.862;2023-05-27T05:54:01;6.03;;;2.10;;
72358;SDS011;60317;48.880;-0.862;2023-05-27T05:56:28;4.43;;;2.03;;
72358;SDS011;60317;48.880;-0.862;2023-05-27T05:58:56;4.65;;;1.98;;
72358;SDS011;60317;48.880;-0.862;2023-05-27T06:01:23;5.07;;;2.00;;
72358;SDS011;60317;48.880;-0.862;2023-05-27T06:03:49;7.43;;;2.58;;
72358;SDS011;60317;48.880;-0.862;2023-05-27T06:06:16;6.10;;;2.10;;
72358;SDS011;60317;48.880;-0.862;2023-05-27T06:08:42;8.35;;;2.65;;
72358;SDS011;60317;48.880;-0.862;2023-05-27T06:11:09;6.28;;;2.55;;
72358;SDS011;60317;48.880;-0.862;2023-05-27T06:13:35;9.52;;;2.50;;
72358;SDS011;60317;48.880;-0.862;2023-05-27T06:16:03;6.53;;;2.38;;
72358;SDS011;60317;48.880;-0.862;2023-05-27T06:18:30;7.63;;;2.58;;
72358;SDS011;60317;48.880;-0.862;2023-05-27T06:20:56;7.15;;;2.40;;
72358;SDS011;60317;48.880;-0.862;2023-05-27T06:23:23;9.38;;;2.63;;
72358;SDS011;60317;48.880;-0.862;2023-05-27T06:25:50;6.80;;;2.60;;
72358;SDS011;60317;48.880;-0.862;2023-05-27T06:28:16;8.82;;;3.00;;
72358;SDS011;60317;48.880;-0.862;2023-05-27T06:30:42;8.30;;;2.60;;
72358;SDS011;60317;48.880;-0.862;2023-05-27T06:33:10;8.07;;;3.30;;
72358;SDS011;60317;48.880;-0.862;2023-05-27T06:35:37;9.02;;;2.80;;
72358;SDS011;60317;48.880;-0.862;2023-05-27T06:38:04;8.00;;;2.58;;
72358;SDS011;60317;48.880;-0.862;2023-05-27T06:40:31;7.78;;;2.70;;
72358;SDS011;60317;48.880;-0.862;2023-05-27T06:42:57;9.48;;;3.63;;
72358;SDS011;60317;48.880;-0.862;2023-05-27T06:45:24;10.25;;;2.90;;
72358;SDS011;60317;48.880;-0.862;2023-05-27T06:47:50;10.68;;;2.75;;
72358;SDS011;60317;48.880;-0.862;2023-05-27T06:50:18;8.30;;;3.13;;
72358;SDS011;60317;48.880;-0.862;2023-05-27T06:52:44;8.38;;;3.10;;
72358;SDS011;60317;48.880;-0.862;2023-05-27T06:55:11;10.25;;;2.88;;
72358;SDS011;60317;48.880;-0.862;2023-05-27T06:57:38;13.27;;;3.30;;
72358;SDS011;60317;48.880;-0.862;2023-05-27T07:00:04;12.27;;;3.15;;
72358;SDS011;60317;48.880;-0.862;2023-05-27T07:02:31;8.73;;;2.95;;
72358;SDS011;60317;48.880;-0.862;2023-05-27T07:04:58;9.85;;;3.10;;
72358;SDS011;60317;48.880;-0.862;2023-05-27T07:07:26;11.43;;;3.13;;
72358;SDS011;60317;48.880;-0.862;2023-05-27T07:09:52;9.35;;;2.67;;
72358;SDS011;60317;48.880;-0.862;2023-05-27T07:12:19;6.60;;;2.80;;
72358;SDS011;60317;48.880;-0.862;2023-05-27T07:14:45;9.68;;;2.67;;
72358;SDS011;60317;48.880;-0.862;2023-05-27T07:17:12;9.10;;;3.10;;
72358;SDS011;60317;48.880;-0.862;2023-05-27T07:19:38;9.35;;;3.22;;
72358;SDS011;60317;48.880;-0.862;2023-05-27T07:22:05;10.55;;;3.20;;
72358;SDS011;60317;48.880;-0.862;2023-05-27T07:24:33;8.55;;;3.28;;
72358;SDS011;60317;48.880;-0.862;2023-05-27T07:26:59;7.75;;;2.85;;
72358;SDS011;60317;48.880;-0.862;2023-05-27T07:29:26;10.52;;;2.75;;
72358;SDS011;60317;48.880;-0.862;2023-05-27T07:31:52;11.38;;;3.00;;
72358;SDS011;60317;48.880;-0.862;2023-05-27T07:34:19;8.50;;;3.03;;
72358;SDS011;60317;48.880;-0.862;2023-05-27T07:36:45;10.10;;;3.05;;
72358;SDS011;60317;48.880;-0.862;2023-05-27T07:39:12;8.20;;;2.78;;
72358;SDS011;60317;48.880;-0.862;2023-05-27T07:41:40;10.60;;;3.40;;
72358;SDS011;60317;48.880;-0.862;2023-05-27T07:44:06;9.63;;;2.90;;
72358;SDS011;60317;48.880;-0.862;2023-05-27T07:46:33;9.13;;;3.17;;
72358;SDS011;60317;48.880;-0.862;2023-05-27T07:48:59;10.27;;;3.17;;
72358;SDS011;60317;48.880;-0.862;2023-05-27T07:51:26;11.65;;;3.28;;
72358;SDS011;60317;48.880;-0.862;2023-05-27T07:53:52;10.75;;;3.30;;
72358;SDS011;60317;48.880;-0.862;2023-05-27T07:56:19;7.55;;;3.10;;
72358;SDS011;60317;48.880;-0.862;2023-05-27T07:58:46;13.15;;;3.47;;
72358;SDS011;60317;48.880;-0.862;2023-05-27T08:01:13;14.82;;;3.90;;
72358;SDS011;60317;48.880;-0.862;2023-05-27T08:03:39;13.52;;;3.10;;
72358;SDS011;60317;48.880;-0.862;2023-05-27T08:06:06;9.18;;;3.60;;
72358;SDS011;60317;48.880;-0.862;2023-05-27T08:08:33;10.15;;;3.08;;
72358;SDS011;60317;48.880;-0.862;2023-05-27T08:10:59;10.38;;;3.22;;
72358;SDS011;60317;48.880;-0.862;2023-05-27T08:13:26;10.45;;;3.65;;
72358;SDS011;60317;48.880;-0.862;2023-05-27T08:15:54;11.00;;;3.35;;
72358;SDS011;60317;48.880;-0.862;2023-05-27T08:18:20;11.65;;;3.38;;
72358;SDS011;60317;48.880;-0.862;2023-05-27T08:20:47;12.43;;;3.22;;
72358;SDS011;60317;48.880;-0.862;2023-05-27T08:23:14;9.10;;;3.60;;
72358;SDS011;60317;48.880;-0.862;2023-05-27T08:25:41;9.38;;;3.00;;
72358;SDS011;60317;48.880;-0.862;2023-05-27T08:28:07;8.55;;;3.20;;
72358;SDS011;60317;48.880;-0.862;2023-05-27T08:30:34;12.55;;;3.63;;
72358;SDS011;60317;48.880;-0.862;2023-05-27T08:33:01;10.55;;;2.90;;
72358;SDS011;60317;48.880;-0.862;2023-05-27T08:35:28;10.95;;;2.85;;
72358;SDS011;60317;48.880;-0.862;2023-05-27T08:37:54;10.73;;;2.90;;
72358;SDS011;60317;48.880;-0.862;2023-05-27T08:40:21;9.93;;;2.80;;
72358;SDS011;60317;48.880;-0.862;2023-05-27T08:42:47;7.05;;;2.90;;
72358;SDS011;60317;48.880;-0.862;2023-05-27T08:45:14;6.13;;;2.85;;
72358;SDS011;60317;48.880;-0.862;2023-05-27T08:47:41;7.10;;;2.72;;
72358;SDS011;60317;48.880;-0.862;2023-05-27T08:50:09;8.13;;;2.40;;
72358;SDS011;60317;48.880;-0.862;2023-05-27T08:52:44;8.02;;;2.90;;
72358;SDS011;60317;48.880;-0.862;2023-05-27T08:55:11;7.45;;;2.60;;
72358;SDS011;60317;48.880;-0.862;2023-05-27T08:57:41;9.68;;;3.25;;
72358;SDS011;60317;48.880;-0.862;2023-05-27T09:00:12;9.52;;;3.22;;
72358;SDS011;60317;48.880;-0.862;2023-05-27T09:02:39;8.05;;;2.83;;
72358;SDS011;60317;48.880;-0.862;2023-05-27T09:05:06;8.73;;;2.80;;
72358;SDS011;60317;48.880;-0.862;2023-05-27T09:07:35;8.20;;;3.25;;
72358;SDS011;60317;48.880;-0.862;2023-05-27T09:10:02;9.05;;;3.80;;
72358;SDS011;60317;48.880;-0.862;2023-05-27T09:12:28;10.73;;;3.45;;
72358;SDS011;60317;48.880;-0.862;2023-05-27T09:14:55;11.60;;;3.38;;
72358;SDS011;60317;48.880;-0.862;2023-05-27T09:17:23;11.00;;;3.25;;
72358;SDS011;60317;48.880;-0.862;2023-05-27T09:19:50;8.63;;;3.20;;
72358;SDS011;60317;48.880;-0.862;2023-05-27T09:22:19;11.15;;;3.42;;
72358;SDS011;60317;48.880;-0.862;2023-05-27T09:24:47;11.63;;;3.30;;
72358;SDS011;60317;48.880;-0.862;2023-05-27T09:27:14;10.48;;;3.10;;
72358;SDS011;60317;48.880;-0.862;2023-05-27T09:29:41;10.82;;;3.85;;
72358;SDS011;60317;48.880;-0.862;2023-05-27T09:32:07;9.90;;;3.50;;
72358;SDS011;60317;48.880;-0.862;2023-05-27T09:34:37;8.90;;;3.40;;
72358;SDS011;60317;48.880;-0.862;2023-05-27T09:37:04;9.50;;;3.35;;
72358;SDS011;60317;48.880;-0.862;2023-05-27T09:39:32;10.93;;;3.40;;
72358;SDS011;60317;48.880;-0.862;2023-05-27T09:42:00;13.60;;;3.75;;
72358;SDS011;60317;48.880;-0.862;2023-05-27T09:44:27;10.40;;;3.58;;
72358;SDS011;60317;48.880;-0.862;2023-05-27T09:46:54;9.73;;;3.42;;
72358;SDS011;60317;48.880;-0.862;2023-05-27T09:49:23;13.10;;;3.58;;
72358;SDS011;60317;48.880;-0.862;2023-05-27T09:51:52;14.23;;;3.70;;
72358;SDS011;60317;48.880;-0.862;2023-05-27T09:54:20;8.45;;;3.25;;
72358;SDS011;60317;48.880;-0.862;2023-05-27T09:56:48;13.32;;;3.55;;
72358;SDS011;60317;48.880;-0.862;2023-05-27T09:59:16;8.70;;;3.47;;
72358;SDS011;60317;48.880;-0.862;2023-05-27T10:01:44;11.00;;;3.35;;
72358;SDS011;60317;48.880;-0.862;2023-05-27T10:04:13;11.50;;;3.80;;
72358;SDS011;60317;48.880;-0.862;2023-05-27T10:06:40;12.55;;;3.20;;
72358;SDS011;60317;48.880;-0.862;2023-05-27T10:09:08;7.95;;;3.40;;
72358;SDS011;60317;48.880;-0.862;2023-05-27T10:11:35;8.60;;;3.25;;
72358;SDS011;60317;48.880;-0.862;2023-05-27T10:14:02;9.18;;;3.50;;
72358;SDS011;60317;48.880;-0.862;2023-05-27T10:16:30;9.77;;;3.58;;
72358;SDS011;60317;48.880;-0.862;2023-05-27T10:18:57;9.82;;;3.35;;
72358;SDS011;60317;48.880;-0.862;2023-05-27T10:21:26;9.07;;;3.25;;
72358;SDS011;60317;48.880;-0.862;2023-05-27T10:23:55;12.40;;;3.22;;
72358;SDS011;60317;48.880;-0.862;2023-05-27T10:26:31;8.85;;;3.28;;
72358;SDS011;60317;48.880;-0.862;2023-05-27T10:29:05;8.98;;;3.25;;
72358;SDS011;60317;48.880;-0.862;2023-05-27T10:31:33;7.45;;;3.38;;
72358;SDS011;60317;48.880;-0.862;2023-05-27T10:34:03;10.82;;;3.15;;
72358;SDS011;60317;48.880;-0.862;2023-05-27T10:36:31;9.20;;;3.40;;
72358;SDS011;60317;48.880;-0.862;2023-05-27T10:38:59;13.15;;;4.05;;
72358;SDS011;60317;48.880;-0.862;2023-05-27T10:41:26;10.35;;;3.17;;
72358;SDS011;60317;48.880;-0.862;2023-05-27T10:43:54;11.38;;;3.70;;
72358;SDS011;60317;48.880;-0.862;2023-05-27T10:46:21;8.95;;;3.75;;
72358;SDS011;60317;48.880;-0.862;2023-05-27T10:48:49;8.93;;;3.33;;
72358;SDS011;60317;48.880;-0.862;2023-05-27T10:51:15;10.30;;;3.40;;
72358;SDS011;60317;48.880;-0.862;2023-05-27T10:53:42;13.25;;;3.45;;
72358;SDS011;60317;48.880;-0.862;2023-05-27T10:56:09;13.50;;;3.30;;
72358;SDS011;60317;48.880;-0.862;2023-05-27T10:58:35;11.75;;;3.83;;
72358;SDS011;60317;48.880;-0.862;2023-05-27T11:01:07;7.75;;;3.53;;
72358;SDS011;60317;48.880;-0.862;2023-05-27T11:03:41;10.15;;;3.15;;
72358;SDS011;60317;48.880;-0.862;2023-05-27T11:06:10;10.57;;;3.67;;
72358;SDS011;60317;48.880;-0.862;2023-05-27T11:08:37;12.45;;;3.72;;
72358;SDS011;60317;48.880;-0.862;2023-05-27T11:11:05;8.35;;;3.67;;
72358;SDS011;60317;48.880;-0.862;2023-05-27T11:13:33;10.23;;;3.53;;
72358;SDS011;60317;48.880;-0.862;2023-05-27T11:16:02;9.75;;;3.50;;
72358;SDS011;60317;48.880;-0.862;2023-05-27T11:18:39;13.77;;;3.83;;
72358;SDS011;60317;48.880;-0.862;2023-05-27T11:21:06;9.30;;;3.40;;
72358;SDS011;60317;48.880;-0.862;2023-05-27T11:23:37;12.20;;;3.95;;
72358;SDS011;60317;48.880;-0.862;2023-05-27T11:26:04;10.95;;;3.88;;
72358;SDS011;60317;48.880;-0.862;2023-05-27T11:28:30;12.63;;;3.53;;
72358;SDS011;60317;48.880;-0.862;2023-05-27T11:30:58;7.93;;;3.60;;
72358;SDS011;60317;48.880;-0.862;2023-05-27T11:33:30;10.30;;;3.55;;
72358;SDS011;60317;48.880;-0.862;2023-05-27T11:36:03;12.13;;;3.58;;
72358;SDS011;60317;48.880;-0.862;2023-05-27T11:38:31;12.88;;;4.00;;
72358;SDS011;60317;48.880;-0.862;2023-05-27T11:41:07;10.98;;;4.07;;
72358;SDS011;60317;48.880;-0.862;2023-05-27T11:43:34;10.60;;;3.78;;
72358;SDS011;60317;48.880;-0.862;2023-05-27T11:46:02;10.82;;;3.47;;
72358;SDS011;60317;48.880;-0.862;2023-05-27T11:48:29;11.65;;;3.70;;
72358;SDS011;60317;48.880;-0.862;2023-05-27T11:50:56;13.13;;;4.00;;
72358;SDS011;60317;48.880;-0.862;2023-05-27T11:53:22;11.98;;;3.60;;
72358;SDS011;60317;48.880;-0.862;2023-05-27T11:55:49;11.50;;;4.03;;
72358;SDS011;60317;48.880;-0.862;2023-05-27T11:58:17;8.80;;;3.35;;
72358;SDS011;60317;48.880;-0.862;2023-05-27T12:00:43;7.90;;;3.10;;
72358;SDS011;60317;48.880;-0.862;2023-05-27T12:03:11;8.45;;;3.42;;
72358;SDS011;60317;48.880;-0.862;2023-05-27T12:05:38;9.40;;;3.47;;
72358;SDS011;60317;48.880;-0.862;2023-05-27T12:08:05;8.63;;;3.35;;
72358;SDS011;60317;48.880;-0.862;2023-05-27T12:10:31;10.30;;;3.63;;
72358;SDS011;60317;48.880;-0.862;2023-05-27T12:13:02;8.95;;;3.58;;
72358;SDS011;60317;48.880;-0.862;2023-05-27T12:15:30;11.35;;;3.92;;
72358;SDS011;60317;48.880;-0.862;2023-05-27T12:17:56;12.30;;;3.70;;
72358;SDS011;60317;48.880;-0.862;2023-05-27T12:20:23;14.32;;;3.78;;
72358;SDS011;60317;48.880;-0.862;2023-05-27T12:22:50;11.43;;;4.10;;
72358;SDS011;60317;48.880;-0.862;2023-05-27T12:25:16;8.57;;;3.53;;
72358;SDS011;60317;48.880;-0.862;2023-05-27T12:27:42;10.30;;;4.25;;
72358;SDS011;60317;48.880;-0.862;2023-05-27T12:30:09;13.35;;;4.03;;
72358;SDS011;60317;48.880;-0.862;2023-05-27T12:32:37;11.05;;;4.25;;
72358;SDS011;60317;48.880;-0.862;2023-05-27T12:35:04;14.32;;;4.43;;
72358;SDS011;60317;48.880;-0.862;2023-05-27T12:37:31;8.55;;;3.67;;
72358;SDS011;60317;48.880;-0.862;2023-05-27T12:39:58;9.18;;;3.55;;
72358;SDS011;60317;48.880;-0.862;2023-05-27T12:42:24;14.82;;;3.85;;
72358;SDS011;60317;48.880;-0.862;2023-05-27T12:44:51;14.07;;;4.03;;
72358;SDS011;60317;48.880;-0.862;2023-05-27T12:47:17;10.98;;;3.63;;
72358;SDS011;60317;48.880;-0.862;2023-05-27T12:49:45;12.50;;;4.18;;
72358;SDS011;60317;48.880;-0.862;2023-05-27T12:52:12;8.52;;;3.63;;
72358;SDS011;60317;48.880;-0.862;2023-05-27T12:54:38;8.90;;;3.55;;
72358;SDS011;60317;48.880;-0.862;2023-05-27T12:57:05;13.20;;;3.63;;
72358;SDS011;60317;48.880;-0.862;2023-05-27T12:59:31;16.45;;;4.10;;
72358;SDS011;60317;48.880;-0.862;2023-05-27T13:01:58;10.77;;;3.45;;
72358;SDS011;60317;48.880;-0.862;2023-05-27T13:04:25;9.73;;;3.72;;
72358;SDS011;60317;48.880;-0.862;2023-05-27T13:06:53;8.85;;;3.58;;
72358;SDS011;60317;48.880;-0.862;2023-05-27T13:09:19;8.43;;;3.28;;
72358;SDS011;60317;48.880;-0.862;2023-05-27T13:11:46;10.05;;;4.00;;
72358;SDS011;60317;48.880;-0.862;2023-05-27T13:14:12;12.02;;;3.97;;
72358;SDS011;60317;48.880;-0.862;2023-05-27T13:16:39;11.32;;;3.88;;
72358;SDS011;60317;48.880;-0.862;2023-05-27T13:19:05;9.15;;;3.58;;
72358;SDS011;60317;48.880;-0.862;2023-05-27T13:21:32;10.38;;;3.97;;
72358;SDS011;60317;48.880;-0.862;2023-05-27T13:24:00;9.25;;;3.72;;
72358;SDS011;60317;48.880;-0.862;2023-05-27T13:26:27;14.43;;;4.43;;
72358;SDS011;60317;48.880;-0.862;2023-05-27T13:28:53;13.05;;;3.42;;
72358;SDS011;60317;48.880;-0.862;2023-05-27T13:31:20;10.25;;;3.65;;
72358;SDS011;60317;48.880;-0.862;2023-05-27T13:33:46;11.98;;;3.97;;
72358;SDS011;60317;48.880;-0.862;2023-05-27T13:36:13;8.32;;;3.40;;
72358;SDS011;60317;48.880;-0.862;2023-05-27T13:38:39;9.18;;;3.90;;
72358;SDS011;60317;48.880;-0.862;2023-05-27T13:41:07;9.25;;;3.90;;
72358;SDS011;60317;48.880;-0.862;2023-05-27T13:43:33;10.98;;;3.90;;
72358;SDS011;60317;48.880;-0.862;2023-05-27T13:46:00;10.07;;;3.88;;
72358;SDS011;60317;48.880;-0.862;2023-05-27T13:48:27;10.02;;;3.80;;
72358;SDS011;60317;48.880;-0.862;2023-05-27T13:50:53;8.95;;;3.33;;
72358;SDS011;60317;48.880;-0.862;2023-05-27T13:53:20;8.07;;;3.45;;
72358;SDS011;60317;48.880;-0.862;2023-05-27T13:55:46;11.07;;;3.97;;
72358;SDS011;60317;48.880;-0.862;2023-05-27T13:58:14;12.45;;;3.65;;
72358;SDS011;60317;48.880;-0.862;2023-05-27T14:00:41;10.25;;;4.28;;
72358;SDS011;60317;48.880;-0.862;2023-05-27T14:03:07;11.95;;;4.10;;
72358;SDS011;60317;48.880;-0.862;2023-05-27T14:05:34;11.10;;;3.80;;
72358;SDS011;60317;48.880;-0.862;2023-05-27T14:08:00;12.50;;;3.83;;
72358;SDS011;60317;48.880;-0.862;2023-05-27T14:10:27;11.90;;;3.85;;
72358;SDS011;60317;48.880;-0.862;2023-05-27T14:12:53;10.52;;;3.88;;
72358;SDS011;60317;48.880;-0.862;2023-05-27T14:15:21;11.18;;;4.05;;
72358;SDS011;60317;48.880;-0.862;2023-05-27T14:17:48;11.45;;;3.92;;
72358;SDS011;60317;48.880;-0.862;2023-05-27T14:20:14;8.85;;;3.53;;
72358;SDS011;60317;48.880;-0.862;2023-05-27T14:22:41;11.73;;;3.85;;
72358;SDS011;60317;48.880;-0.862;2023-05-27T14:25:08;10.45;;;4.20;;
72358;SDS011;60317;48.880;-0.862;2023-05-27T14:27:35;9.63;;;3.72;;